Time;durP1;ratioP1;P1;durP2;ratioP2;P2;SDS_P1;SDS_P2;PMS_P1;PMS_P2;Temp;Humidity;BMP_temperature;BMP_pressure;BME280_temperature;BME280_humidity;BME280_pressure;Samples;Min_cycle;Max_cycle;Signal;HPM_P1;HPM_P2
2021/01/11 00:00:01;;;;;;;15.77;8.50;;;-8.80;99.90;;;;;;6187684;23;20027;-78
2021/01/11 00:02:27;;;;;;;17.20;8.75;;;-8.90;99.90;;;;;;6186249;23;20025;-78
2021/01/11 00:04:53;;;;;;;17.27;9.55;;;-8.80;99.90;;;;;;6187654;23;20048;-78
2021/01/11 00:07:19;;;;;;;19.65;9.38;;;-8.80;99.90;;;;;;6187660;23;20096;-77
2021/01/11 00:09:46;;;;;;;17.05;8.85;;;-8.80;99.90;;;;;;6187093;23;20463;-78
2021/01/11 00:12:12;;;;;;;18.40;8.88;;;-8.80;99.90;;;;;;6185633;23;20021;-78
2021/01/11 00:14:39;;;;;;;25.35;11.30;;;-8.90;99.90;;;;;;6187224;23;20099;-78
2021/01/11 00:17:05;;;;;;;22.80;11.30;;;-9.00;99.90;;;;;;6186957;23;20021;-78
2021/01/11 00:19:32;;;;;;;23.50;10.77;;;-9.00;99.90;;;;;;6187132;23;20017;-78
2021/01/11 00:21:58;;;;;;;19.55;9.48;;;-9.10;99.90;;;;;;6187546;23;20399;-78
2021/01/11 00:24:24;;;;;;;22.15;10.05;;;-9.20;99.90;;;;;;6187433;23;20075;-78
2021/01/11 00:26:52;;;;;;;22.02;10.50;;;-9.30;99.90;;;;;;6162068;23;20025;-79
2021/01/11 00:29:21;;;;;;;21.50;9.75;;;-9.40;99.90;;;;;;6163296;23;20456;-79
2021/01/11 00:31:48;;;;;;;20.50;9.70;;;-9.40;99.90;;;;;;6189209;23;20040;-79
2021/01/11 00:34:14;;;;;;;19.48;10.27;;;-9.30;99.90;;;;;;6189114;23;20044;-79
2021/01/11 00:36:45;;;;;;;17.98;8.45;;;-9.30;99.90;;;;;;6188367;23;20057;-77
2021/01/11 00:39:11;;;;;;;17.75;9.20;;;-9.30;99.90;;;;;;6160598;23;20025;-77
2021/01/11 00:41:37;;;;;;;17.52;8.68;;;-9.40;99.90;;;;;;6186706;23;20399;-78
2021/01/11 00:44:04;;;;;;;17.88;8.88;;;-9.40;99.90;;;;;;6160186;23;20080;-78
2021/01/11 00:46:30;;;;;;;17.00;8.73;;;-9.50;99.90;;;;;;6160695;23;20025;-77
2021/01/11 00:48:57;;;;;;;16.48;8.35;;;-9.50;99.90;;;;;;6186391;23;20049;-78
2021/01/11 00:51:24;;;;;;;15.95;7.82;;;-9.50;99.90;;;;;;6186946;23;20112;-77
2021/01/11 00:53:50;;;;;;;16.90;8.55;;;-9.50;99.90;;;;;;6186813;23;20021;-78
2021/01/11 00:56:19;;;;;;;14.95;7.90;;;-9.60;99.90;;;;;;6187095;23;20017;-78
2021/01/11 00:58:46;;;;;;;17.83;9.15;;;-9.60;99.90;;;;;;6186554;23;20021;-78
2021/01/11 01:01:14;;;;;;;20.42;9.48;;;-9.60;99.90;;;;;;6161634;23;20071;-78
2021/01/11 01:03:41;;;;;;;14.80;8.30;;;-9.60;99.90;;;;;;6187244;23;20021;-77
2021/01/11 01:06:12;;;;;;;16.10;8.93;;;-9.50;99.90;;;;;;6160360;23;20518;-78
2021/01/11 01:08:39;;;;;;;18.63;8.82;;;-9.60;99.90;;;;;;6186270;23;20467;-78
2021/01/11 01:11:08;;;;;;;15.30;8.35;;;-9.60;99.90;;;;;;6160707;23;20021;-78
2021/01/11 01:13:34;;;;;;;17.80;8.30;;;-9.60;99.90;;;;;;6186637;23;20056;-78
2021/01/11 01:16:01;;;;;;;14.88;8.45;;;-9.60;99.90;;;;;;6187033;23;20352;-78
2021/01/11 01:18:27;;;;;;;15.68;8.52;;;-9.60;99.90;;;;;;6186052;23;20024;-78
2021/01/11 01:20:53;;;;;;;13.35;7.53;;;-9.60;99.90;;;;;;6186899;23;20049;-78
2021/01/11 01:23:19;;;;;;;18.88;9.00;;;-9.70;99.90;;;;;;6186608;23;20021;-78
2021/01/11 01:25:46;;;;;;;15.43;8.63;;;-9.70;99.90;;;;;;6186754;23;20060;-78
2021/01/11 01:28:12;;;;;;;17.75;8.48;;;-9.70;99.90;;;;;;6186342;23;20025;-78
2021/01/11 01:30:38;;;;;;;15.85;8.30;;;-9.70;99.90;;;;;;6186768;23;20056;-78
2021/01/11 01:33:05;;;;;;;13.45;7.22;;;-9.70;99.90;;;;;;6186301;23;20460;-78
2021/01/11 01:35:31;;;;;;;15.15;7.47;;;-9.80;99.90;;;;;;6160740;23;20100;-78
2021/01/11 01:37:58;;;;;;;16.50;8.00;;;-9.70;99.90;;;;;;6186914;23;20056;-78
2021/01/11 01:40:25;;;;;;;15.65;7.18;;;-9.80;99.90;;;;;;6186399;23;20025;-78
2021/01/11 01:42:52;;;;;;;12.13;7.53;;;-9.80;99.90;;;;;;6160800;23;20411;-78
2021/01/11 01:45:19;;;;;;;14.55;7.35;;;-9.80;99.90;;;;;;6160605;23;20025;-78
2021/01/11 01:47:46;;;;;;;15.30;7.57;;;-9.90;99.90;;;;;;6186412;23;20025;-78
2021/01/11 01:50:14;;;;;;;17.67;8.50;;;-10.00;99.90;;;;;;6160366;23;20096;-77
2021/01/11 01:52:43;;;;;;;14.55;7.30;;;-9.90;99.90;;;;;;6160225;23;20385;-78
2021/01/11 01:55:10;;;;;;;15.20;8.00;;;-9.90;99.90;;;;;;6186714;23;20029;-78
2021/01/11 01:57:37;;;;;;;16.42;7.45;;;-9.90;99.90;;;;;;6160149;23;20052;-78
2021/01/11 02:00:06;;;;;;;15.23;8.13;;;-9.90;99.90;;;;;;6160324;23;20514;-78
2021/01/11 02:02:32;;;;;;;12.77;6.18;;;-9.90;99.90;;;;;;6186942;23;20411;-78
2021/01/11 02:04:58;;;;;;;15.00;7.20;;;-9.90;99.90;;;;;;6187099;23;20059;-78
2021/01/11 02:07:36;;;;;;;13.88;7.13;;;-9.90;99.90;;;;;;6187491;23;20028;-78
2021/01/11 02:10:22;;;;;;;12.32;6.22;;;-10.00;99.90;;;;;;6186961;23;20024;-78
2021/01/11 02:13:12;;;;;;;12.38;6.82;;;-9.90;99.90;;;;;;6165805;23;20072;-79
2021/01/11 02:16:03;;;;;;;10.05;5.75;;;-10.00;99.90;;;;;;6188793;23;20048;-79
2021/01/11 02:18:43;;;;;;;11.13;6.15;;;-10.10;99.90;;;;;;6186677;23;20056;-79
2021/01/11 02:22:03;;;;;;;11.93;6.57;;;-10.20;99.90;;;;;;6188313;23;20029;-78
2021/01/11 02:25:05;;;;;;;11.00;6.18;;;-10.20;99.90;;;;;;6096017;23;20030;-77
2021/01/11 02:27:34;;;;;;;12.82;6.35;;;-10.20;99.90;;;;;;6186029;23;20021;-78
2021/01/11 02:30:29;;;;;;;11.05;6.53;;;-10.20;99.90;;;;;;6185805;23;20017;-77
2021/01/11 02:33:06;;;;;;;13.57;6.40;;;-10.10;99.90;;;;;;6184251;23;20475;-78
2021/01/11 02:35:47;;;;;;;13.65;7.20;;;-10.20;99.90;;;;;;6186046;23;20071;-78
2021/01/11 02:38:16;;;;;;;14.75;7.32;;;-10.20;99.90;;;;;;6185967;23;20027;-77
2021/01/11 02:40:43;;;;;;;11.75;6.55;;;-10.30;99.90;;;;;;6184239;23;20048;-77
2021/01/11 02:43:10;;;;;;;13.05;7.10;;;-10.20;99.90;;;;;;6185976;23;20029;-77
2021/01/11 02:45:36;;;;;;;10.50;6.53;;;-10.10;99.90;;;;;;6186167;23;20025;-77
2021/01/11 02:48:13;;;;;;;11.45;6.50;;;-10.20;99.90;;;;;;6186099;23;20052;-78
2021/01/11 02:51:09;;;;;;;15.65;7.22;;;-10.20;99.90;;;;;;6185912;23;20031;-78
2021/01/11 02:54:06;;;;;;;12.50;6.93;;;-10.30;99.90;;;;;;6147188;23;20021;-78
2021/01/11 02:56:36;;;;;;;12.90;6.50;;;-10.20;99.90;;;;;;6186465;23;20028;-77
2021/01/11 02:59:13;;;;;;;10.90;6.13;;;-10.20;99.90;;;;;;6185106;23;20044;-77
2021/01/11 03:01:49;;;;;;;13.60;6.45;;;-10.30;99.90;;;;;;6185796;23;20036;-78
2021/01/11 03:04:21;;;;;;;11.27;6.80;;;-10.40;99.90;;;;;;6186012;23;20333;-78
2021/01/11 03:06:59;;;;;;;14.73;6.70;;;-10.30;99.90;;;;;;6186170;23;20071;-77
2021/01/11 03:09:26;;;;;;;14.70;6.43;;;-10.30;99.90;;;;;;6185092;23;20025;-77
2021/01/11 03:11:52;;;;;;;11.75;5.95;;;-10.40;99.90;;;;;;6184552;23;20052;-77
2021/01/11 03:14:22;;;;;;;14.23;7.05;;;-10.40;99.90;;;;;;6183460;23;20021;-77
2021/01/11 03:16:48;;;;;;;12.27;5.97;;;-10.30;99.90;;;;;;6186607;23;20021;-77
2021/01/11 03:19:15;;;;;;;10.60;6.05;;;-10.40;99.90;;;;;;6186108;23;20047;-78
2021/01/11 03:21:41;;;;;;;10.80;5.60;;;-10.40;99.90;;;;;;6186384;23;20029;-78
2021/01/11 03:24:08;;;;;;;15.48;6.47;;;-10.40;99.90;;;;;;6186506;23;20476;-77
2021/01/11 03:26:35;;;;;;;12.73;6.10;;;-10.40;99.90;;;;;;6184183;23;20509;-78
2021/01/11 03:29:03;;;;;;;10.63;6.18;;;-10.40;99.90;;;;;;6186062;23;20048;-78
2021/01/11 03:31:30;;;;;;;11.52;5.93;;;-10.30;99.90;;;;;;6185864;23;20472;-77
2021/01/11 03:33:56;;;;;;;14.77;6.93;;;-10.30;99.90;;;;;;6184631;23;20017;-78
2021/01/11 03:36:23;;;;;;;12.27;6.35;;;-10.30;99.90;;;;;;6186203;23;20021;-77
2021/01/11 03:38:49;;;;;;;14.85;6.22;;;-10.30;99.90;;;;;;6185850;23;20104;-77
2021/01/11 03:41:16;;;;;;;10.90;5.90;;;-10.30;99.90;;;;;;6186304;23;20059;-77
2021/01/11 03:43:44;;;;;;;12.40;6.57;;;-10.30;99.90;;;;;;6186333;23;20095;-77
2021/01/11 03:46:16;;;;;;;11.50;6.10;;;-10.20;99.90;;;;;;6185023;23;20021;-78
2021/01/11 03:48:44;;;;;;;9.88;5.78;;;-10.20;99.90;;;;;;6186341;23;20021;-77
2021/01/11 03:51:11;;;;;;;11.35;5.78;;;-10.20;99.90;;;;;;6185489;23;20096;-77
2021/01/11 03:53:38;;;;;;;9.18;5.53;;;-10.30;99.90;;;;;;6186368;23;20056;-78
2021/01/11 03:56:08;;;;;;;10.93;5.53;;;-10.30;99.90;;;;;;6187270;23;20045;-78
2021/01/11 03:58:35;;;;;;;9.98;6.05;;;-10.30;99.90;;;;;;6186722;23;20355;-78
2021/01/11 04:01:03;;;;;;;11.32;5.80;;;-10.30;99.90;;;;;;6187538;23;20025;-78
2021/01/11 04:03:30;;;;;;;9.07;5.40;;;-10.30;99.90;;;;;;6185958;23;20415;-79
2021/01/11 04:05:58;;;;;;;11.02;6.30;;;-10.40;99.90;;;;;;6185564;23;20025;-78
2021/01/11 04:08:24;;;;;;;13.40;5.63;;;-10.40;99.90;;;;;;6186604;23;20025;-78
2021/01/11 04:10:51;;;;;;;10.45;5.78;;;-10.40;99.90;;;;;;6186947;23;20155;-78
2021/01/11 04:13:18;;;;;;;12.30;6.05;;;-10.40;99.90;;;;;;6184864;23;20407;-77
2021/01/11 04:15:45;;;;;;;10.82;6.35;;;-10.50;99.90;;;;;;6186853;23;20021;-77
2021/01/11 04:18:11;;;;;;;9.23;5.50;;;-10.50;99.90;;;;;;6188294;23;20546;-77
2021/01/11 04:20:38;;;;;;;10.57;5.70;;;-10.40;99.90;;;;;;6187543;23;20021;-77
2021/01/11 04:23:05;;;;;;;13.57;5.90;;;-10.50;99.90;;;;;;6187708;23;20063;-77
2021/01/11 04:25:32;;;;;;;10.25;5.40;;;-10.50;99.90;;;;;;6188892;23;20049;-78
2021/01/11 04:28:01;;;;;;;11.32;6.13;;;-10.50;99.90;;;;;;6188887;23;20436;-77
2021/01/11 04:30:28;;;;;;;8.73;5.25;;;-10.50;99.90;;;;;;6188418;23;20074;-77
2021/01/11 04:32:54;;;;;;;13.55;6.30;;;-10.40;99.90;;;;;;6188370;23;20017;-77
2021/01/11 04:35:22;;;;;;;11.30;6.00;;;-10.60;99.90;;;;;;6188602;23;20032;-77
2021/01/11 04:37:49;;;;;;;10.02;5.63;;;-10.50;99.90;;;;;;6189161;23;20212;-77
2021/01/11 04:40:16;;;;;;;10.38;5.72;;;-10.40;99.90;;;;;;6187622;23;20091;-77
2021/01/11 04:42:54;;;;;;;12.63;5.28;;;-10.50;99.90;;;;;;6188887;23;20032;-78
2021/01/11 04:45:22;;;;;;;9.25;5.30;;;-10.50;99.90;;;;;;6187881;23;20028;-77
2021/01/11 04:47:56;;;;;;;8.20;4.85;;;-10.50;99.90;;;;;;6188199;23;20021;-77
2021/01/11 04:50:24;;;;;;;11.48;5.57;;;-10.50;99.90;;;;;;6188349;23;20052;-77
2021/01/11 04:52:51;;;;;;;11.57;5.85;;;-10.50;99.90;;;;;;6186804;23;20025;-77
2021/01/11 04:55:19;;;;;;;9.18;5.05;;;-10.50;99.90;;;;;;6187759;23;20021;-77
2021/01/11 04:57:56;;;;;;;12.40;6.03;;;-10.50;99.90;;;;;;6187836;23;20021;-77
2021/01/11 05:00:27;;;;;;;9.30;5.70;;;-10.50;99.90;;;;;;6188195;23;20021;-78
2021/01/11 05:02:58;;;;;;;9.90;5.03;;;-10.60;99.90;;;;;;6186601;23;20364;-77
2021/01/11 05:05:27;;;;;;;10.68;5.45;;;-10.60;99.90;;;;;;6186459;23;20021;-77
2021/01/11 05:07:54;;;;;;;10.18;5.15;;;-10.70;99.90;;;;;;6186183;23;20021;-78
2021/01/11 05:10:25;;;;;;;9.45;5.53;;;-10.60;99.90;;;;;;6187832;23;20017;-78
2021/01/11 05:12:57;;;;;;;11.55;5.43;;;-10.70;99.90;;;;;;6186283;23;20025;-77
2021/01/11 05:15:33;;;;;;;8.65;5.10;;;-10.60;99.90;;;;;;6187869;23;20064;-77
2021/01/11 05:18:00;;;;;;;10.07;5.43;;;-10.50;99.90;;;;;;6188050;23;20059;-77
2021/01/11 05:20:31;;;;;;;10.85;5.53;;;-10.50;99.90;;;;;;6188012;23;20032;-77
2021/01/11 05:22:59;;;;;;;13.05;6.00;;;-10.60;99.90;;;;;;6188374;23;20025;-77
2021/01/11 05:25:27;;;;;;;10.02;5.43;;;-10.50;99.90;;;;;;6186564;23;20029;-77
2021/01/11 05:28:14;;;;;;;9.60;5.13;;;-10.60;99.90;;;;;;6187668;23;20025;-77
2021/01/11 05:30:44;;;;;;;9.45;4.43;;;-10.50;99.90;;;;;;6187579;23;20017;-77
2021/01/11 05:33:25;;;;;;;12.88;5.38;;;-10.40;99.90;;;;;;6186522;23;20027;-77
2021/01/11 05:36:08;;;;;;;11.60;5.00;;;-10.50;99.90;;;;;;6187723;23;20025;-76
2021/01/11 05:38:45;;;;;;;10.70;5.88;;;-10.50;99.90;;;;;;6188128;23;20020;-77
2021/01/11 05:41:20;;;;;;;7.68;5.05;;;-10.50;99.90;;;;;;6187447;23;20025;-77
2021/01/11 05:44:07;;;;;;;10.98;5.80;;;-10.50;99.90;;;;;;6187978;23;20051;-77
2021/01/11 05:46:34;;;;;;;11.90;5.03;;;-10.50;99.90;;;;;;6187485;23;20057;-77
2021/01/11 05:49:08;;;;;;;11.18;5.75;;;-10.40;99.90;;;;;;6187551;23;20392;-78
2021/01/11 05:51:36;;;;;;;9.25;5.28;;;-10.50;99.90;;;;;;6185196;23;20028;-78
2021/01/11 05:54:03;;;;;;;10.23;5.07;;;-10.40;99.90;;;;;;6186471;23;20359;-78
2021/01/11 05:56:51;;;;;;;9.48;4.88;;;-10.40;99.90;;;;;;6186488;23;20025;-78
2021/01/11 05:59:17;;;;;;;11.98;5.53;;;-10.50;99.90;;;;;;6186299;23;20028;-78
2021/01/11 06:01:44;;;;;;;8.02;5.00;;;-10.60;99.90;;;;;;6186025;23;20050;-77
2021/01/11 06:04:10;;;;;;;9.70;4.93;;;-10.60;99.90;;;;;;6184362;23;20036;-77
2021/01/11 06:06:37;;;;;;;10.18;5.40;;;-10.70;99.90;;;;;;6185835;23;20022;-77
2021/01/11 06:09:03;;;;;;;12.98;5.72;;;-10.70;99.90;;;;;;6186558;23;20061;-77
2021/01/11 06:11:30;;;;;;;10.80;5.32;;;-10.60;99.90;;;;;;6186790;23;20020;-77
2021/01/11 06:13:58;;;;;;;16.27;5.80;;;-10.60;99.90;;;;;;6186132;23;20024;-77
2021/01/11 06:16:25;;;;;;;9.68;6.13;;;-10.70;99.90;;;;;;6186944;23;20052;-78
2021/01/11 06:18:53;;;;;;;16.60;6.28;;;-10.60;99.90;;;;;;6186581;23;20017;-77
2021/01/11 06:21:20;;;;;;;20.90;6.95;;;-10.50;99.90;;;;;;6187073;23;20036;-77
2021/01/11 06:23:48;;;;;;;17.75;6.45;;;-10.50;99.90;;;;;;6187125;23;20108;-77
2021/01/11 06:26:26;;;;;;;16.15;7.53;;;-10.40;99.90;;;;;;6186394;23;20056;-77
2021/01/11 06:28:54;;;;;;;18.10;7.93;;;-10.40;99.90;;;;;;6186246;23;20021;-77
2021/01/11 06:31:29;;;;;;;19.67;8.05;;;-10.40;99.90;;;;;;6186483;23;20072;-78
2021/01/11 06:33:56;;;;;;;13.45;7.00;;;-10.50;99.90;;;;;;6160137;23;20464;-77
2021/01/11 06:36:29;;;;;;;14.07;7.25;;;-10.50;99.90;;;;;;6186976;23;20021;-77
2021/01/11 06:38:56;;;;;;;22.98;7.88;;;-10.50;99.90;;;;;;6186852;23;20021;-77
2021/01/11 06:41:28;;;;;;;18.08;7.55;;;-10.50;99.90;;;;;;6188172;23;20024;-78
2021/01/11 06:44:04;;;;;;;13.52;7.13;;;-10.50;99.90;;;;;;6160949;23;20460;-78
2021/01/11 06:46:30;;;;;;;16.83;7.65;;;-10.40;99.90;;;;;;6187847;23;20060;-77
2021/01/11 06:49:00;;;;;;;17.70;8.27;;;-10.50;99.90;;;;;;6187864;23;20079;-78
2021/01/11 06:51:31;;;;;;;16.10;8.43;;;-10.50;99.90;;;;;;6187407;23;20048;-77
2021/01/11 06:54:14;;;;;;;16.35;7.35;;;-10.40;99.90;;;;;;6186659;23;20519;-78
2021/01/11 06:56:41;;;;;;;16.08;7.95;;;-10.40;99.90;;;;;;6187783;23;20096;-78
2021/01/11 06:59:12;;;;;;;22.83;9.85;;;-10.50;99.90;;;;;;6187600;23;20017;-78
2021/01/11 07:01:40;;;;;;;20.33;9.50;;;-10.50;99.90;;;;;;6161178;23;20534;-77
2021/01/11 07:04:07;;;;;;;21.73;9.32;;;-10.50;99.90;;;;;;6187428;23;20024;-77
2021/01/11 07:06:38;;;;;;;18.75;8.82;;;-10.40;99.90;;;;;;6187370;23;20079;-78
2021/01/11 07:09:08;;;;;;;19.60;7.50;;;-10.50;99.90;;;;;;6188008;23;20399;-78
2021/01/11 07:11:36;;;;;;;23.73;7.95;;;-10.50;99.90;;;;;;6187520;23;20056;-78
2021/01/11 07:14:03;;;;;;;13.90;6.85;;;-10.60;99.90;;;;;;6185529;23;20025;-77
2021/01/11 07:16:47;;;;;;;17.38;8.70;;;-10.60;99.90;;;;;;6159427;23;20543;-77
2021/01/11 07:19:18;;;;;;;12.65;7.70;;;-10.50;99.90;;;;;;6185738;23;20103;-78
2021/01/11 07:21:47;;;;;;;17.25;10.65;;;-10.40;99.90;;;;;;6186756;23;20348;-78
2021/01/11 07:24:13;;;;;;;14.00;7.15;;;-10.50;99.90;;;;;;6185622;23;20108;-77
2021/01/11 07:26:40;;;;;;;11.38;6.35;;;-10.50;99.90;;;;;;6186944;23;20037;-77
2021/01/11 07:29:07;;;;;;;13.43;7.00;;;-10.50;99.90;;;;;;6186629;23;20456;-78
2021/01/11 07:31:40;;;;;;;14.13;7.13;;;-10.40;99.90;;;;;;6187024;23;20044;-78
2021/01/11 07:34:15;;;;;;;13.85;6.65;;;-10.50;99.90;;;;;;6186225;23;20022;-78
2021/01/11 07:36:51;;;;;;;25.85;8.07;;;-10.40;99.90;;;;;;6186816;23;20021;-78
2021/01/11 07:39:18;;;;;;;17.58;7.70;;;-10.40;99.90;;;;;;6188447;23;20028;-78
2021/01/11 07:41:50;;;;;;;18.90;8.10;;;-10.40;99.90;;;;;;6188311;23;20504;-78
2021/01/11 07:44:16;;;;;;;15.20;7.32;;;-10.40;99.90;;;;;;6189116;23;20024;-78
2021/01/11 07:46:50;;;;;;;10.70;6.72;;;-10.20;99.90;;;;;;6188239;23;20052;-78
2021/01/11 07:49:17;;;;;;;18.98;7.30;;;-10.20;99.90;;;;;;6161789;23;20400;-78
2021/01/11 07:51:47;;;;;;;14.02;6.53;;;-10.20;99.90;;;;;;6188670;23;20024;-78
2021/01/11 07:54:16;;;;;;;11.35;6.38;;;-10.30;99.90;;;;;;6189379;23;20040;-79
2021/01/11 07:56:44;;;;;;;14.80;6.60;;;-10.30;99.90;;;;;;6188953;23;20028;-78
2021/01/11 07:59:10;;;;;;;26.30;9.23;;;-10.20;99.90;;;;;;6189745;23;20443;-78
2021/01/11 08:01:39;;;;;;;17.77;7.50;;;-10.10;99.90;;;;;;6188614;23;20044;-78
2021/01/11 08:04:06;;;;;;;12.27;6.03;;;-10.10;99.90;;;;;;6163344;23;20096;-79
2021/01/11 08:06:55;;;;;;;12.30;5.63;;;-10.00;99.90;;;;;;6163035;23;20048;-78
2021/01/11 08:09:24;;;;;;;26.30;9.90;;;-9.90;99.90;;;;;;6189239;23;20056;-78
2021/01/11 08:12:15;;;;;;;23.95;9.13;;;-9.80;99.90;;;;;;6188877;23;20021;-78
2021/01/11 08:14:42;;;;;;;13.00;6.85;;;-9.70;99.90;;;;;;6189543;23;20017;-78
2021/01/11 08:17:23;;;;;;;13.68;6.38;;;-9.50;99.90;;;;;;6188127;23;20023;-78
2021/01/11 08:19:55;;;;;;;15.57;8.40;;;-9.50;99.90;;;;;;6188798;23;20055;-78
2021/01/11 08:22:22;;;;;;;17.23;8.45;;;-9.40;99.90;;;;;;6162484;23;20032;-78
2021/01/11 08:24:56;;;;;;;14.82;7.95;;;-9.40;99.90;;;;;;6188678;23;20059;-78
2021/01/11 08:27:47;;;;;;;19.90;9.35;;;-9.30;99.90;;;;;;6161497;23;20044;-78
2021/01/11 08:30:20;;;;;;;20.42;9.10;;;-9.40;99.90;;;;;;6188353;23;20534;-78
2021/01/11 08:32:47;;;;;;;23.00;10.00;;;-9.30;99.90;;;;;;6161858;23;20056;-77
2021/01/11 08:35:20;;;;;;;19.88;10.13;;;-9.20;99.90;;;;;;6189026;23;20017;-78
2021/01/11 08:37:47;;;;;;;25.58;13.65;;;-9.00;99.90;;;;;;6162501;23;20059;-78
2021/01/11 08:40:32;;;;;;;33.70;14.48;;;-9.00;99.90;;;;;;6188726;23;20092;-79
2021/01/11 08:43:12;;;;;;;29.08;13.40;;;-8.90;99.90;;;;;;6189577;23;20021;-78
2021/01/11 08:45:41;;;;;;;28.13;12.88;;;-9.00;99.90;;;;;;6190365;23;20021;-79
2021/01/11 08:48:08;;;;;;;22.58;11.15;;;-8.90;99.90;;;;;;6163517;23;20481;-79
2021/01/11 08:50:37;;;;;;;24.20;11.02;;;-9.00;99.90;;;;;;6189086;23;20456;-79
2021/01/11 08:53:29;;;;;;;26.92;12.70;;;-8.90;99.90;;;;;;6163358;23;20025;-78
2021/01/11 08:56:04;;;;;;;29.15;14.45;;;-8.80;99.90;;;;;;6189581;23;20429;-78
2021/01/11 08:58:32;;;;;;;28.13;12.85;;;-8.80;99.90;;;;;;6162796;23;20025;-78
2021/01/11 09:01:17;;;;;;;22.92;11.52;;;-8.70;99.90;;;;;;6189752;23;20044;-78
2021/01/11 09:03:55;;;;;;;68.05;30.20;;;-8.80;99.90;;;;;;6188185;23;20032;-78
2021/01/11 09:06:38;;;;;;;37.15;16.00;;;-8.70;99.90;;;;;;6186723;23;20079;-78
2021/01/11 09:09:10;;;;;;;38.80;17.58;;;-8.60;99.90;;;;;;6187213;23;20075;-78
2021/01/11 09:11:37;;;;;;;33.58;16.55;;;-8.30;99.90;;;;;;6188060;23;20344;-77
2021/01/11 09:14:07;;;;;;;31.77;16.15;;;-8.30;99.90;;;;;;6187668;23;20052;-78
2021/01/11 09:16:34;;;;;;;40.60;16.23;;;-8.20;99.90;;;;;;6187546;23;20360;-78
2021/01/11 09:19:19;;;;;;;39.55;18.33;;;-8.10;99.90;;;;;;6187443;23;20023;-78
2021/01/11 09:22:14;;;;;;;30.65;14.98;;;-7.90;99.90;;;;;;6161278;23;20032;-77
2021/01/11 09:24:42;;;;;;;33.88;16.25;;;-7.70;99.90;;;;;;6161439;23;20456;-78
2021/01/11 09:27:09;;;;;;;39.38;17.23;;;-7.60;99.90;;;;;;6189316;23;20360;-78
2021/01/11 09:29:37;;;;;;;34.55;17.90;;;-7.50;99.90;;;;;;6163974;23;20333;-78
2021/01/11 09:32:04;;;;;;;42.20;18.92;;;-7.40;99.90;;;;;;6189430;23;20530;-79
2021/01/11 09:34:31;;;;;;;44.72;24.02;;;-7.10;99.90;;;;;;6190334;23;20016;-79
2021/01/11 09:36:57;;;;;;;41.08;21.40;;;-6.90;99.90;;;;;;6189267;23;20028;-78
2021/01/11 09:39:24;;;;;;;41.13;21.13;;;-6.80;99.90;;;;;;6190269;23;20021;-78
2021/01/11 09:41:56;;;;;;;53.42;24.52;;;-6.60;99.90;;;;;;6189003;23;20483;-78
2021/01/11 09:44:22;;;;;;;54.83;23.17;;;-6.60;99.90;;;;;;6189957;23;20055;-78
2021/01/11 09:46:54;;;;;;;71.47;27.98;;;-6.50;99.90;;;;;;6188832;23;20044;-79
2021/01/11 09:49:20;;;;;;;58.47;26.50;;;-6.40;99.90;;;;;;6188510;23;20537;-78
2021/01/11 09:51:47;;;;;;;65.10;28.95;;;-6.30;99.90;;;;;;6188294;23;20017;-78
2021/01/11 09:54:13;;;;;;;57.88;22.58;;;-5.90;99.90;;;;;;6188389;23;20021;-78
2021/01/11 09:56:40;;;;;;;41.75;14.30;;;-5.70;99.90;;;;;;6187709;23;20098;-78
2021/01/11 09:59:07;;;;;;;42.17;15.30;;;-5.20;99.90;;;;;;6188146;23;20017;-78
2021/01/11 10:01:44;;;;;;;21.92;11.00;;;-4.50;99.90;;;;;;6187746;23;20027;-78
2021/01/11 10:04:12;;;;;;;21.35;11.02;;;-4.00;99.90;;;;;;6188109;23;20027;-79
2021/01/11 10:06:44;;;;;;;22.17;10.05;;;-3.50;99.90;;;;;;6187643;23;20072;-79
2021/01/11 10:09:14;;;;;;;28.48;11.20;;;-3.10;99.90;;;;;;6187584;23;20084;-79
2021/01/11 10:11:41;;;;;;;19.60;10.02;;;-2.80;99.90;;;;;;6187861;23;20025;-79
2021/01/11 10:14:08;;;;;;;16.70;9.50;;;-2.60;99.90;;;;;;6187117;23;20025;-79
2021/01/11 10:16:38;;;;;;;15.88;7.30;;;-2.30;99.90;;;;;;6187473;23;20353;-79
2021/01/11 10:19:04;;;;;;;16.20;7.80;;;-2.00;99.90;;;;;;6187108;23;20021;-79
2021/01/11 10:21:31;;;;;;;12.85;7.95;;;-1.70;99.90;;;;;;6186896;23;20105;-79
2021/01/11 10:23:57;;;;;;;13.65;8.07;;;-1.50;99.90;;;;;;6187746;23;20032;-79
2021/01/11 10:26:23;;;;;;;17.63;7.80;;;-1.30;99.90;;;;;;6188003;23;20021;-79
2021/01/11 10:28:50;;;;;;;12.27;7.05;;;-1.10;99.90;;;;;;6161977;23;20103;-80
2021/01/11 10:31:18;;;;;;;10.75;6.63;;;-0.90;99.90;;;;;;6162567;23;20047;-80
2021/01/11 10:33:48;;;;;;;12.23;7.80;;;-0.80;99.90;;;;;;6188507;23;20028;-79
2021/01/11 10:36:15;;;;;;;10.68;6.22;;;-0.80;99.90;;;;;;6189403;23;20021;-80
2021/01/11 10:38:42;;;;;;;10.32;6.65;;;-0.80;99.90;;;;;;6188642;23;20021;-80
2021/01/11 10:41:15;;;;;;;9.52;6.40;;;-0.70;99.90;;;;;;6162687;23;20059;-79
2021/01/11 10:43:41;;;;;;;13.35;7.60;;;-0.70;99.90;;;;;;6190978;23;20025;-80
2021/01/11 10:46:11;;;;;;;10.52;7.30;;;-0.60;99.90;;;;;;6189598;23;20055;-81
2021/01/11 10:48:41;;;;;;;12.98;6.10;;;-0.40;99.90;;;;;;6190450;23;20025;-80
2021/01/11 10:51:10;;;;;;;11.90;6.97;;;-0.10;99.90;;;;;;6189674;23;20519;-80
2021/01/11 10:53:41;;;;;;;9.15;6.20;;;0.00;99.90;;;;;;6190250;23;20040;-81
2021/01/11 10:56:08;;;;;;;9.40;6.15;;;0.20;99.90;;;;;;6163418;23;20076;-80
2021/01/11 10:58:35;;;;;;;6.68;5.28;;;0.40;99.90;;;;;;6189552;23;20391;-81
2021/01/11 11:01:04;;;;;;;8.50;6.00;;;0.60;99.90;;;;;;6159559;23;20100;-80
2021/01/11 11:03:30;;;;;;;10.52;5.78;;;0.80;99.90;;;;;;6186108;23;20029;-80
2021/01/11 11:05:57;;;;;;;10.35;5.88;;;1.00;99.90;;;;;;6160687;23;20352;-80
2021/01/11 11:08:23;;;;;;;7.88;5.18;;;1.20;99.90;;;;;;6185829;23;20025;-80
2021/01/11 11:10:50;;;;;;;9.43;5.93;;;1.60;99.90;;;;;;6159918;23;20079;-79
2021/01/11 11:13:17;;;;;;;8.05;5.07;;;1.80;99.90;;;;;;6186447;23;20028;-80
2021/01/11 11:15:47;;;;;;;7.10;5.32;;;1.90;99.90;;;;;;6163746;23;20029;-80
2021/01/11 11:18:14;;;;;;;6.13;5.15;;;1.80;99.90;;;;;;6191874;23;20454;-80
2021/01/11 11:20:44;;;;;;;6.25;4.82;;;1.60;99.90;;;;;;6165947;23;20021;-80
2021/01/11 11:23:11;;;;;;;9.50;5.30;;;1.50;99.90;;;;;;6191395;23;20464;-80
2021/01/11 11:25:40;;;;;;;6.60;5.32;;;1.50;99.90;;;;;;6191414;23;20021;-80
2021/01/11 11:28:06;;;;;;;8.13;5.45;;;1.50;99.90;;;;;;6164637;23;20025;-80
2021/01/11 11:30:33;;;;;;;8.88;5.10;;;1.50;99.90;;;;;;6163141;23;20052;-80
2021/01/11 11:32:59;;;;;;;10.10;5.25;;;1.70;99.90;;;;;;6189319;23;20397;-79
2021/01/11 11:35:25;;;;;;;8.15;4.95;;;1.90;99.90;;;;;;6189429;23;20028;-79
2021/01/11 11:37:52;;;;;;;5.80;4.60;;;2.00;99.90;;;;;;6188904;23;20021;-80
2021/01/11 11:40:19;;;;;;;7.63;5.25;;;1.90;99.90;;;;;;6189327;23;20046;-80
2021/01/11 11:42:45;;;;;;;7.20;5.13;;;2.00;99.90;;;;;;6190275;23;20471;-79
2021/01/11 11:45:14;;;;;;;9.15;4.97;;;2.40;99.90;;;;;;6162526;23;20096;-79
2021/01/11 11:47:42;;;;;;;9.32;5.45;;;2.80;99.90;;;;;;6162227;23;20052;-79
2021/01/11 11:50:11;;;;;;;5.75;4.57;;;3.00;99.90;;;;;;6162368;23;20032;-79
2021/01/11 11:52:38;;;;;;;5.30;4.63;;;3.20;99.90;;;;;;6188533;23;20017;-79
2021/01/11 11:55:06;;;;;;;5.55;4.38;;;3.40;99.90;;;;;;6189105;23;20097;-80
2021/01/11 11:57:33;;;;;;;5.03;4.20;;;3.50;99.90;;;;;;6162031;23;20025;-80
2021/01/11 12:00:00;;;;;;;4.90;4.22;;;3.90;99.90;;;;;;6188777;23;20064;-79
2021/01/11 12:02:26;;;;;;;6.63;4.32;;;4.40;99.90;;;;;;6188669;23;20405;-79
2021/01/11 12:04:53;;;;;;;7.03;4.95;;;4.50;99.90;;;;;;6161402;23;20499;-80
2021/01/11 12:07:19;;;;;;;6.85;4.70;;;4.30;99.90;;;;;;6162947;23;20056;-79
2021/01/11 12:09:45;;;;;;;5.45;4.72;;;4.20;99.90;;;;;;6161399;23;20076;-79
2021/01/11 12:12:15;;;;;;;6.07;5.03;;;3.90;99.90;;;;;;6160743;23;20017;-79
2021/01/11 12:14:43;;;;;;;6.60;4.60;;;3.60;99.90;;;;;;6188634;23;20029;-79
2021/01/11 12:17:09;;;;;;;6.07;4.60;;;3.10;99.90;;;;;;6187740;23;20044;-79
2021/01/11 12:19:35;;;;;;;7.80;5.43;;;2.60;99.90;;;;;;6188985;23;20021;-81
2021/01/11 12:22:06;;;;;;;8.40;5.47;;;2.30;99.90;;;;;;6164560;23;20092;-81
2021/01/11 12:24:32;;;;;;;9.15;5.18;;;2.20;99.90;;;;;;6189247;23;20029;-80
2021/01/11 12:26:59;;;;;;;8.25;5.10;;;2.10;99.90;;;;;;6186589;23;20068;-79
2021/01/11 12:29:25;;;;;;;8.48;5.82;;;2.10;99.90;;;;;;6186306;23;20025;-79
2021/01/11 12:31:52;;;;;;;6.05;5.05;;;2.00;99.90;;;;;;6160025;23;20384;-80
2021/01/11 12:34:18;;;;;;;6.68;5.40;;;1.80;99.90;;;;;;6186272;23;20021;-79
2021/01/11 12:36:44;;;;;;;7.97;5.50;;;1.70;99.90;;;;;;6186883;23;20091;-78
2021/01/11 12:39:11;;;;;;;7.75;5.45;;;1.60;99.90;;;;;;6188283;23;20056;-79
2021/01/11 12:41:39;;;;;;;7.68;5.47;;;1.50;99.90;;;;;;6189533;23;20056;-80
2021/01/11 12:44:07;;;;;;;10.90;5.97;;;1.30;99.90;;;;;;6188878;23;20060;-79
2021/01/11 12:46:33;;;;;;;8.93;5.90;;;1.30;99.90;;;;;;6188739;23;20424;-79